Weather at Paradise Landing Seaplane Base

Public forecast

Using degrees Fahrenheit for public forecast. Weather courtesy of forecast.io.

Closest aviation weather report (METAR) to Paradise Landing Seaplane Base

Closest report is Orlando Executive Airport, 6.9 nm (12.8 km) SSE. Retrieved 2022/01/27 08:53 UTC (29 minutes ago):

KORL 270853Z AUTO 36010KT 10SM OVC011 17/14 A3008 RMK AO2 SLP189 T01670144 58003

Closest aviation forecast (TAF) to Paradise Landing Seaplane Base

Closest forecast is Orlando Sanford International Airport, 10.4 nm (19.3 km) NE. Retrieved 2022/01/27 06:03 UTC (3 hours ago):

TAF KSFB 270559Z 2706/2806 01010KT P6SM OVC025 FM270900 36010KT 6SM BR OVC008 FM271300 01010KT P6SM BKN015 FM271800 02013G19KT P6SM SCT015 BKN025 FM280200 36009KT P6SM SCT025 BKN035